createdAt,value
2019-05-17T00:00:37.552Z,17.03
2019-05-17T00:03:41.421Z,17.40
2019-05-17T00:06:47.460Z,17.50
2019-05-17T00:09:50.948Z,16.67
2019-05-17T00:12:56.392Z,17.13
2019-05-17T00:16:00.353Z,17.00
2019-05-17T00:19:04.249Z,17.77
2019-05-17T00:22:08.060Z,18.07
2019-05-17T00:25:12.202Z,17.23
2019-05-17T00:28:16.456Z,18.43
2019-05-17T00:31:20.174Z,18.77
2019-05-17T00:34:23.906Z,19.67
2019-05-17T00:37:30.310Z,22.03
2019-05-17T00:40:36.729Z,25.27
2019-05-17T00:43:40.745Z,25.30
2019-05-17T00:46:46.584Z,23.00
2019-05-17T00:49:50.045Z,23.37
2019-05-17T00:52:53.884Z,23.83
2019-05-17T00:55:57.579Z,20.85
2019-05-17T00:59:01.284Z,19.20
2019-05-17T01:02:07.014Z,17.07
2019-05-17T01:05:11.169Z,15.40
2019-05-17T01:08:14.822Z,19.70
2019-05-17T01:11:18.691Z,18.57
2019-05-17T01:14:22.801Z,21.73
2019-05-17T01:17:27.115Z,18.07
2019-05-17T01:20:30.973Z,17.97
2019-05-17T01:23:36.279Z,20.33
2019-05-17T01:26:40.253Z,15.53
2019-05-17T01:29:46.488Z,15.73
2019-05-17T01:32:49.621Z,13.03
2019-05-17T01:35:53.333Z,11.13
2019-05-17T01:38:57.653Z,11.80
2019-05-17T01:42:01.632Z,11.67
2019-05-17T01:45:07.270Z,15.53
2019-05-17T01:48:11.201Z,19.63
2019-05-17T01:51:16.941Z,14.07
2019-05-17T01:54:20.517Z,14.33
2019-05-17T01:57:24.297Z,13.98
2019-05-17T02:00:28.215Z,12.07
2019-05-17T02:03:31.885Z,13.97
2019-05-17T02:06:36.672Z,14.93
2019-05-17T02:09:41.795Z,14.58
2019-05-17T02:12:48.705Z,11.90
2019-05-17T02:15:51.417Z,17.53
2019-05-17T02:18:57.192Z,15.50
2019-05-17T02:22:00.563Z,16.73
2019-05-17T02:25:07.142Z,13.60
2019-05-17T02:28:12.201Z,12.93
2019-05-17T02:31:16.070Z,13.83
2019-05-17T02:34:23.689Z,14.97
2019-05-17T02:37:27.575Z,17.50
2019-05-17T02:40:34.214Z,12.10
2019-05-17T02:43:36.873Z,11.45
2019-05-17T02:46:43.274Z,11.20
2019-05-17T02:49:46.118Z,11.73
2019-05-17T02:52:52.712Z,12.57
2019-05-17T02:55:55.321Z,11.40
2019-05-17T02:58:59.008Z,11.97
2019-05-17T03:02:03.436Z,12.80
2019-05-17T03:05:08.245Z,12.30
2019-05-17T03:08:12.381Z,12.23
2019-05-17T03:11:16.325Z,10.57
2019-05-17T03:14:22.803Z,11.53
2019-05-17T03:17:25.751Z,11.43
2019-05-17T03:20:32.389Z,11.57
2019-05-17T03:23:34.942Z,10.87
2019-05-17T03:26:38.710Z,12.70
2019-05-17T03:29:42.693Z,10.07
2019-05-17T03:32:48.850Z,9.87
2019-05-17T03:35:56.504Z,10.10
2019-05-17T03:38:58.671Z,10.13
2019-05-17T03:42:03.730Z,11.07
2019-05-17T03:45:08.210Z,7.47
2019-05-17T03:48:13.080Z,9.13
2019-05-17T03:51:17.105Z,9.73
2019-05-17T03:54:22.664Z,9.60
2019-05-17T03:57:26.630Z,8.47
2019-05-17T04:00:34.869Z,9.60
2019-05-17T04:03:36.983Z,10.50
2019-05-17T04:06:43.498Z,11.08
2019-05-17T04:09:46.174Z,9.63
2019-05-17T04:12:52.741Z,10.43
2019-05-17T04:15:55.409Z,11.53
2019-05-17T04:18:59.158Z,11.30
2019-05-17T04:22:03.737Z,9.30
2019-05-17T04:25:08.025Z,10.90
2019-05-17T04:28:13.666Z,11.77
2019-05-17T04:31:17.193Z,10.97
2019-05-17T04:34:22.419Z,12.10
2019-05-17T04:37:26.318Z,11.68
2019-05-17T04:40:33.557Z,14.63
2019-05-17T04:43:35.564Z,12.10
2019-05-17T04:46:39.362Z,13.67
2019-05-17T04:49:44.049Z,13.97
2019-05-17T04:52:48.765Z,12.00
2019-05-17T04:55:53.986Z,13.73
2019-05-17T04:58:58.159Z,13.43
2019-05-17T05:02:02.970Z,14.30
2019-05-17T05:05:07.567Z,13.57
2019-05-17T05:08:13.031Z,14.03
2019-05-17T05:11:16.705Z,15.07
2019-05-17T05:14:23.173Z,15.75
2019-05-17T05:17:25.913Z,15.70
2019-05-17T05:20:32.417Z,15.53
2019-05-17T05:23:35.083Z,14.83
2019-05-17T05:26:38.836Z,16.67
2019-05-17T05:29:43.277Z,17.00
2019-05-17T05:32:46.968Z,17.33
2019-05-17T05:35:51.678Z,17.77
2019-05-17T05:38:55.585Z,16.70
2019-05-17T05:42:06.939Z,17.63
2019-05-17T05:45:05.232Z,17.90
2019-05-17T05:48:12.472Z,17.77
2019-05-17T05:51:16.008Z,18.87
2019-05-17T05:54:19.701Z,19.43
2019-05-17T05:57:23.405Z,17.80
2019-05-17T06:00:29.573Z,17.40
2019-05-17T06:03:33.309Z,17.03
2019-05-17T06:06:36.984Z,16.53
2019-05-17T06:09:42.370Z,14.97
2019-05-17T06:12:46.225Z,16.07
2019-05-17T06:15:51.763Z,15.70
2019-05-17T06:18:55.798Z,15.07
2019-05-17T06:21:59.495Z,15.10
2019-05-17T06:25:04.039Z,14.27
2019-05-17T06:28:07.997Z,14.83
2019-05-17T06:31:11.688Z,15.70
2019-05-17T06:34:15.418Z,16.83
2019-05-17T06:37:19.147Z,14.47
2019-05-17T06:40:22.978Z,13.63
2019-05-17T06:43:26.761Z,12.45
2019-05-17T06:46:32.453Z,14.07
2019-05-17T06:49:35.997Z,15.63
2019-05-17T06:52:39.737Z,13.30
2019-05-17T06:55:43.449Z,15.10
2019-05-17T06:58:47.662Z,14.57
2019-05-17T07:01:51.510Z,15.47
2019-05-17T07:04:56.862Z,16.33
2019-05-17T07:08:00.628Z,16.10
2019-05-17T07:11:04.482Z,17.80
2019-05-17T07:14:09.415Z,17.10
2019-05-17T07:17:13.386Z,18.13
2019-05-17T07:20:19.272Z,16.93
2019-05-17T07:23:22.671Z,17.23
2019-05-17T07:26:26.416Z,18.43
2019-05-17T07:29:30.136Z,17.43
2019-05-17T07:32:33.832Z,20.87
2019-05-17T07:35:39.741Z,17.60
2019-05-17T07:38:44.012Z,19.83
2019-05-17T07:41:49.384Z,20.00
2019-05-17T07:44:53.198Z,19.20
2019-05-17T07:47:56.997Z,18.73
2019-05-17T07:51:01.156Z,19.40
2019-05-17T07:54:04.915Z,18.80
2019-05-17T07:57:10.354Z,19.32
2019-05-17T08:00:14.695Z,17.93
2019-05-17T08:03:20.854Z,18.90
2019-05-17T08:06:23.989Z,18.00
2019-05-17T08:09:30.060Z,17.13
2019-05-17T08:12:33.176Z,14.53
2019-05-17T08:15:36.966Z,15.97
2019-05-17T08:18:40.933Z,17.50
2019-05-17T08:21:44.741Z,17.80
2019-05-17T08:24:49.373Z,15.97
2019-05-17T08:27:53.548Z,14.60
2019-05-17T08:30:57.288Z,14.80
2019-05-17T08:34:00.988Z,15.87
2019-05-17T08:37:04.778Z,16.53
2019-05-17T08:40:10.733Z,14.73
2019-05-17T08:43:14.362Z,12.97
2019-05-17T08:46:19.927Z,11.87
2019-05-17T08:49:24.534Z,12.03
2019-05-17T08:52:29.388Z,14.23
2019-05-17T08:55:33.263Z,13.33
2019-05-17T08:58:40.155Z,11.85
2019-05-17T09:01:43.083Z,11.40
2019-05-17T09:04:46.780Z,12.93
2019-05-17T09:07:50.457Z,14.07
2019-05-17T09:10:54.230Z,11.83
2019-05-17T09:14:01.647Z,11.90
2019-05-17T09:17:03.701Z,12.77
2019-05-17T09:20:10.380Z,11.77
2019-05-17T09:23:13.214Z,11.93
2019-05-17T09:26:17.012Z,11.93
2019-05-17T09:29:20.689Z,12.30
2019-05-17T09:32:24.483Z,11.57
2019-05-17T09:35:30.139Z,11.27
2019-05-17T09:38:33.850Z,11.93
2019-05-17T09:41:39.612Z,11.87
2019-05-17T09:44:43.065Z,11.53
2019-05-17T09:47:46.869Z,10.00
2019-05-17T09:50:50.704Z,11.43
2019-05-17T09:53:54.516Z,10.83
2019-05-17T09:57:00.456Z,10.40
2019-05-17T10:00:04.773Z,9.60
2019-05-17T10:03:09.747Z,10.60
2019-05-17T10:06:13.865Z,9.05
2019-05-17T10:09:19.588Z,10.20
2019-05-17T10:12:23.185Z,9.67
2019-05-17T10:15:26.989Z,9.03
2019-05-17T10:18:31.152Z,9.47
2019-05-17T10:21:34.901Z,10.10
2019-05-17T10:24:42.030Z,9.40
2019-05-17T10:27:44.170Z,9.17
2019-05-17T10:30:51.930Z,10.50
2019-05-17T10:33:53.700Z,9.47
2019-05-17T10:36:57.378Z,8.33
2019-05-17T10:40:01.146Z,10.10
2019-05-17T10:43:04.999Z,10.17
2019-05-17T10:46:10.523Z,9.23
2019-05-17T10:49:14.363Z,9.50
2019-05-17T10:52:20.318Z,9.90
2019-05-17T10:55:23.537Z,8.80
2019-05-17T10:58:29.625Z,10.60
2019-05-17T11:01:32.926Z,9.60
2019-05-17T11:04:36.734Z,9.17
2019-05-17T11:07:41.500Z,9.85
2019-05-17T11:10:45.412Z,8.43
2019-05-17T11:13:49.173Z,8.93
2019-05-17T11:16:52.889Z,9.10
2019-05-17T11:19:56.681Z,9.20
2019-05-17T11:23:00.402Z,8.57
2019-05-17T11:26:04.332Z,8.87
2019-05-17T11:29:08.029Z,8.80
2019-05-17T11:32:11.730Z,8.30
2019-05-17T11:35:15.659Z,7.50
2019-05-17T11:38:19.633Z,7.90
2019-05-17T11:41:23.376Z,8.00
2019-05-17T11:44:27.557Z,8.57
2019-05-17T11:47:31.292Z,8.27
2019-05-17T11:50:35.118Z,8.70
2019-05-17T11:53:38.772Z,8.63
2019-05-17T11:56:42.788Z,9.00
2019-05-17T11:59:47.819Z,8.70
2019-05-17T12:02:51.726Z,8.00
2019-05-17T12:05:55.593Z,8.40
2019-05-17T12:09:01.858Z,8.63
2019-05-17T12:12:05.733Z,8.40
2019-05-17T12:15:09.808Z,8.93
2019-05-17T12:18:13.572Z,8.97
2019-05-17T12:21:17.453Z,8.90
2019-05-17T12:24:21.231Z,7.57
2019-05-17T12:27:25.134Z,8.57
2019-05-17T12:30:29.712Z,8.70
2019-05-17T12:33:34.010Z,9.33
2019-05-17T12:36:37.704Z,9.10
2019-05-17T12:39:41.536Z,7.80
2019-05-17T12:42:45.234Z,7.83
2019-05-17T12:46:00.146Z,8.50
2019-05-17T12:48:54.542Z,8.53
2019-05-17T12:51:58.268Z,8.67
2019-05-17T12:55:02.101Z,8.53
2019-05-17T12:58:05.822Z,8.80
2019-05-17T13:01:09.573Z,7.75
2019-05-17T13:04:13.359Z,9.27
2019-05-17T13:07:17.105Z,9.03
2019-05-17T13:10:21.569Z,7.77
2019-05-17T13:13:25.377Z,7.93
2019-05-17T13:16:29.102Z,7.87
2019-05-17T13:19:32.834Z,8.00
2019-05-17T13:22:37.141Z,8.07
2019-05-17T13:25:40.798Z,8.23
2019-05-17T13:28:44.664Z,8.70
2019-05-17T13:31:48.329Z,8.33
2019-05-17T13:34:52.061Z,7.47
2019-05-17T13:37:56.035Z,7.80
2019-05-17T13:40:59.782Z,8.03
2019-05-17T13:44:03.566Z,8.50
2019-05-17T13:47:07.346Z,7.87
2019-05-17T13:50:11.257Z,8.07
2019-05-17T13:53:15.006Z,9.10
2019-05-17T13:56:18.685Z,7.63
2019-05-17T13:59:22.449Z,7.97
2019-05-17T14:02:26.131Z,7.37
2019-05-17T14:05:29.911Z,8.57
2019-05-17T14:08:33.583Z,7.20
2019-05-17T14:11:37.237Z,8.13
2019-05-17T14:14:41.042Z,8.25
2019-05-17T14:17:45.054Z,7.33
2019-05-17T14:20:49.632Z,7.13
2019-05-17T14:23:53.579Z,8.33
2019-05-17T14:26:57.442Z,7.87
2019-05-17T14:30:01.309Z,8.43
2019-05-17T14:33:05.284Z,7.43
2019-05-17T14:36:09.067Z,8.27
2019-05-17T14:39:12.830Z,7.93
2019-05-17T14:42:16.633Z,8.07
2019-05-17T14:45:20.410Z,6.92
2019-05-17T14:48:24.155Z,8.23
2019-05-17T14:51:27.942Z,7.80
2019-05-17T14:54:31.713Z,7.67
2019-05-17T14:57:35.611Z,7.47
2019-05-17T15:00:40.180Z,7.43
2019-05-17T15:03:44.164Z,7.87
2019-05-17T15:06:48.035Z,6.70
2019-05-17T15:09:51.831Z,7.13
2019-05-17T15:12:55.493Z,6.47
2019-05-17T15:15:59.278Z,7.30
2019-05-17T15:19:03.084Z,7.53
2019-05-17T15:22:06.960Z,7.60
2019-05-17T15:25:10.911Z,6.73
2019-05-17T15:28:14.642Z,7.60
2019-05-17T15:31:18.421Z,7.57
2019-05-17T15:34:22.355Z,7.67
2019-05-17T15:37:26.172Z,7.67
2019-05-17T15:40:30.001Z,7.33
2019-05-17T15:43:33.688Z,6.90
2019-05-17T15:46:37.464Z,7.63
2019-05-17T15:49:41.366Z,7.53
2019-05-17T15:52:45.120Z,6.90
2019-05-17T15:55:49.397Z,6.83
2019-05-17T15:58:54.212Z,6.90
2019-05-17T16:01:58.061Z,6.67
2019-05-17T16:05:01.820Z,7.22
2019-05-17T16:08:05.611Z,7.10
2019-05-17T16:11:09.434Z,6.07
2019-05-17T16:14:13.141Z,7.33
2019-05-17T16:17:16.893Z,6.30
2019-05-17T16:20:23.728Z,7.10
2019-05-17T16:23:27.435Z,6.70
2019-05-17T16:26:31.272Z,6.87
2019-05-17T16:29:34.998Z,7.10
2019-05-17T16:32:39.243Z,6.73
2019-05-17T16:35:42.957Z,6.70
2019-05-17T16:38:46.781Z,6.97
2019-05-17T16:41:50.681Z,5.97
2019-05-17T16:44:57.512Z,6.63
2019-05-17T16:48:01.328Z,5.93
2019-05-17T16:51:05.345Z,5.90
2019-05-17T16:54:09.161Z,6.17
2019-05-17T16:57:12.947Z,5.67
2019-05-17T17:00:29.497Z,6.30
2019-05-17T17:03:43.665Z,5.80
2019-05-17T17:06:38.777Z,6.00
2019-05-17T17:09:42.540Z,6.00
2019-05-17T17:12:46.293Z,6.47
2019-05-17T17:15:53.129Z,6.87
2019-05-17T17:18:57.071Z,6.77
2019-05-17T17:22:00.740Z,6.13
2019-05-17T17:25:04.818Z,6.50
2019-05-17T17:28:08.472Z,5.60
2019-05-17T17:31:16.041Z,6.37
2019-05-17T17:34:20.169Z,6.70
2019-05-17T17:37:24.009Z,6.40
2019-05-17T17:40:28.129Z,6.30
2019-05-17T17:43:32.010Z,6.07
2019-05-17T17:46:36.191Z,6.97
2019-05-17T17:49:52.132Z,6.83
2019-05-17T17:52:55.857Z,7.15
2019-05-17T17:55:59.598Z,6.70
2019-05-17T17:59:03.527Z,7.37
2019-05-17T18:02:07.557Z,7.27
2019-05-17T18:05:12.959Z,7.00
2019-05-17T18:08:19.565Z,7.37
2019-05-17T18:11:23.537Z,8.87
2019-05-17T18:14:46.875Z,9.70
2019-05-17T18:17:50.810Z,12.67
2019-05-17T18:20:54.556Z,11.70
2019-05-17T18:23:58.316Z,10.83
2019-05-17T18:27:02.083Z,10.43
2019-05-17T18:30:06.193Z,10.47
2019-05-17T18:33:09.982Z,9.27
2019-05-17T18:36:13.714Z,9.27
2019-05-17T18:39:18.057Z,9.78
2019-05-17T18:42:21.745Z,9.33
2019-05-17T18:45:25.485Z,9.30
2019-05-17T18:48:29.214Z,9.17
2019-05-17T18:51:32.899Z,8.90
2019-05-17T18:54:36.610Z,9.70
2019-05-17T18:57:40.566Z,10.20
2019-05-17T19:00:44.495Z,10.20
2019-05-17T19:03:48.273Z,10.47
2019-05-17T19:06:52.177Z,10.60
2019-05-17T19:09:55.883Z,10.47
2019-05-17T19:12:59.770Z,10.77
2019-05-17T19:16:03.562Z,10.10
2019-05-17T19:19:07.250Z,11.60
2019-05-17T19:22:10.973Z,11.30
2019-05-17T19:25:15.083Z,11.40
2019-05-17T19:28:18.736Z,11.83
2019-05-17T19:31:22.498Z,12.27
2019-05-17T19:34:26.277Z,11.10
2019-05-17T19:37:30.030Z,12.40
2019-05-17T19:40:34.468Z,11.97
2019-05-17T19:43:47.446Z,13.00
2019-05-17T19:46:51.182Z,12.73
2019-05-17T19:49:55.086Z,11.93
2019-05-17T19:52:58.859Z,12.47
2019-05-17T19:56:02.666Z,12.30
2019-05-17T19:59:06.386Z,13.00
2019-05-17T20:02:10.097Z,13.40
2019-05-17T20:05:14.465Z,14.20
2019-05-17T20:08:18.137Z,14.10
2019-05-17T20:11:33.592Z,13.60
2019-05-17T20:14:27.439Z,13.20
2019-05-17T20:17:31.269Z,14.40
2019-05-17T20:20:35.043Z,14.40
2019-05-17T20:23:38.701Z,14.47
2019-05-17T20:26:42.413Z,14.37
2019-05-17T20:29:46.069Z,15.47
2019-05-17T20:32:49.786Z,15.13
2019-05-17T20:35:55.215Z,13.80
2019-05-17T20:38:58.910Z,16.20
2019-05-17T20:42:02.691Z,14.60
2019-05-17T20:45:06.909Z,15.60
2019-05-17T20:48:11.001Z,14.63
2019-05-17T20:51:14.819Z,15.93
2019-05-17T20:54:18.679Z,15.07
2019-05-17T20:57:22.556Z,15.00
2019-05-17T21:00:26.655Z,15.60
2019-05-17T21:03:30.631Z,15.43
2019-05-17T21:06:34.507Z,15.97
2019-05-17T21:09:38.634Z,15.20
2019-05-17T21:12:42.605Z,15.00
2019-05-17T21:15:48.084Z,15.47
2019-05-17T21:18:52.312Z,15.23
2019-05-17T21:21:56.297Z,14.83
2019-05-17T21:25:00.194Z,15.67
2019-05-17T21:28:04.310Z,15.23
2019-05-17T21:31:09.129Z,16.10
2019-05-17T21:34:13.123Z,15.15
2019-05-17T21:37:16.981Z,15.47
2019-05-17T21:40:25.350Z,14.43
2019-05-17T21:43:29.269Z,14.70
2019-05-17T21:46:33.140Z,16.00
2019-05-17T21:49:37.054Z,14.10
2019-05-17T21:52:40.930Z,14.87
2019-05-17T21:55:44.750Z,14.93
2019-05-17T21:58:48.632Z,15.77
2019-05-17T22:01:52.951Z,16.07
2019-05-17T22:04:57.667Z,17.00
2019-05-17T22:08:01.717Z,15.73
2019-05-17T22:11:06.174Z,15.73
2019-05-17T22:14:10.127Z,15.37
2019-05-17T22:17:14.070Z,15.60
2019-05-17T22:20:18.139Z,16.47
2019-05-17T22:23:21.964Z,16.23
2019-05-17T22:26:25.865Z,17.50
2019-05-17T22:29:29.751Z,16.83
2019-05-17T22:32:33.699Z,16.97
2019-05-17T22:35:37.624Z,17.17
2019-05-17T22:38:41.527Z,15.80
2019-05-17T22:41:45.443Z,17.97
2019-05-17T22:44:49.337Z,17.57
2019-05-17T22:47:53.163Z,17.13
2019-05-17T22:50:57.099Z,19.83
2019-05-17T22:54:03.661Z,17.90
2019-05-17T22:57:07.527Z,17.90
2019-05-17T23:00:11.492Z,18.30
2019-05-17T23:03:15.595Z,16.83
2019-05-17T23:06:19.574Z,17.97
2019-05-17T23:09:23.432Z,18.47
2019-05-17T23:12:27.451Z,18.33
2019-05-17T23:15:34.532Z,18.13
2019-05-17T23:18:38.546Z,17.93
2019-05-17T23:21:43.927Z,16.17
2019-05-17T23:24:47.794Z,18.60
2019-05-17T23:27:51.731Z,17.97
2019-05-17T23:30:56.056Z,18.87
2019-05-17T23:34:01.241Z,18.83
2019-05-17T23:37:05.047Z,18.45
2019-05-17T23:40:09.329Z,19.83
2019-05-17T23:43:13.297Z,19.13
2019-05-17T23:46:17.128Z,18.90
2019-05-17T23:49:22.181Z,19.87
2019-05-17T23:52:26.212Z,20.80
2019-05-17T23:55:30.159Z,20.00
2019-05-17T23:58:34.037Z,20.02
